Time;durP1;ratioP1;P1;durP2;ratioP2;P2;SDS_P1;SDS_P2;PMS_P1;PMS_P2;Temp;Humidity;BMP_temperature;BMP_pressure;BME280_temperature;BME280_humidity;BME280_pressure;Samples;Min_cycle;Max_cycle;Signal;HPM_P1;HPM_P2
2022/04/15 00:01:21;;;;;;;2.55;2.35;;;15.20;88.90;;;;;;4987453;28;20034;-87
2022/04/15 00:03:47;;;;;;;3.75;2.72;;;15.20;89.10;;;;;;4989710;28;20056;-90
2022/04/15 00:06:13;;;;;;;9.43;2.97;;;15.20;89.50;;;;;;4986837;28;20125;-88
2022/04/15 00:08:39;;;;;;;3.80;2.42;;;15.10;90.00;;;;;;5009400;28;20022;-91
2022/04/15 00:11:05;;;;;;;3.10;2.75;;;15.10;90.20;;;;;;5008677;28;20513;-87
2022/04/15 00:13:32;;;;;;;4.43;2.75;;;15.00;90.50;;;;;;5010436;28;20038;-88
2022/04/15 00:16:02;;;;;;;3.90;2.78;;;15.00;90.80;;;;;;4992232;28;20028;-87
2022/04/15 00:18:28;;;;;;;6.82;3.00;;;15.00;91.00;;;;;;4995091;28;20033;-87
2022/04/15 00:20:54;;;;;;;5.30;3.28;;;15.00;91.10;;;;;;4989049;28;20026;-88
2022/04/15 00:23:23;;;;;;;4.03;2.80;;;14.90;91.20;;;;;;4990457;28;20104;-87
2022/04/15 00:25:50;;;;;;;3.17;2.75;;;14.90;91.40;;;;;;5004029;28;20034;-87
2022/04/15 00:28:16;;;;;;;7.78;3.22;;;15.00;91.70;;;;;;4995457;28;20410;-88
2022/04/15 00:30:42;;;;;;;4.15;2.95;;;15.00;91.70;;;;;;4992331;28;20037;-88
2022/04/15 00:33:07;;;;;;;3.17;2.80;;;15.00;91.70;;;;;;5006802;28;20122;-88
2022/04/15 00:35:33;;;;;;;4.80;2.80;;;15.00;91.70;;;;;;5005979;28;20033;-90
2022/04/15 00:37:59;;;;;;;5.35;2.60;;;14.90;91.80;;;;;;4987915;28;20770;-90
2022/04/15 00:40:24;;;;;;;3.83;2.88;;;15.00;91.90;;;;;;4995232;28;20038;-91
2022/04/15 00:42:50;;;;;;;3.13;2.47;;;14.90;92.00;;;;;;5005978;28;20062;-89
2022/04/15 00:45:16;;;;;;;4.43;2.63;;;14.90;92.10;;;;;;4997575;28;20032;-87
2022/04/15 00:47:56;;;;;;;5.18;2.45;;;14.90;92.10;;;;;;4996047;28;20113;-88
2022/04/15 00:50:29;;;;;;;3.03;2.53;;;14.90;92.30;;;;;;4992918;28;20042;-87
2022/04/15 00:53:01;;;;;;;2.78;2.50;;;14.90;92.30;;;;;;4991664;28;20044;-88
2022/04/15 00:55:27;;;;;;;5.30;2.85;;;14.80;92.20;;;;;;5000925;28;20057;-88
2022/04/15 00:57:56;;;;;;;3.92;2.58;;;14.80;92.30;;;;;;5011277;28;20098;-89
2022/04/15 01:00:26;;;;;;;4.05;2.83;;;14.80;92.40;;;;;;5032788;28;20014;-88
2022/04/15 01:02:52;;;;;;;4.95;2.88;;;14.70;92.30;;;;;;5031801;28;20097;-90
2022/04/15 01:05:18;;;;;;;8.70;3.30;;;14.70;92.50;;;;;;5023644;28;20061;-89
2022/04/15 01:07:52;;;;;;;3.90;2.90;;;14.70;92.60;;;;;;5011266;28;20030;-89
2022/04/15 01:10:19;;;;;;;4.85;2.95;;;14.60;92.70;;;;;;5002931;28;20034;-87
2022/04/15 01:12:54;;;;;;;3.67;3.28;;;14.60;92.70;;;;;;5000058;28;20029;-87
2022/04/15 01:15:25;;;;;;;7.07;3.47;;;14.60;92.90;;;;;;4986998;28;20061;-88
2022/04/15 01:17:50;;;;;;;3.85;2.85;;;14.50;93.00;;;;;;4985479;28;20081;-89
2022/04/15 01:20:16;;;;;;;5.03;3.35;;;14.50;93.00;;;;;;4994617;28;20026;-88
2022/04/15 01:22:44;;;;;;;4.82;3.45;;;14.50;93.10;;;;;;4992135;28;20038;-90
2022/04/15 01:25:15;;;;;;;4.05;3.45;;;14.40;93.20;;;;;;4995112;28;20025;-88
2022/04/15 01:27:46;;;;;;;7.50;3.20;;;14.40;93.30;;;;;;4987534;28;20099;-88
2022/04/15 01:30:20;;;;;;;4.72;2.88;;;14.30;93.30;;;;;;4994161;28;20034;-87
2022/04/15 01:32:47;;;;;;;4.70;3.17;;;14.30;93.40;;;;;;5011973;28;20104;-87
2022/04/15 01:35:14;;;;;;;3.50;3.13;;;14.20;93.40;;;;;;4987184;28;20048;-88
2022/04/15 01:37:40;;;;;;;5.63;3.20;;;14.20;93.60;;;;;;4991004;28;20097;-87
2022/04/15 01:40:08;;;;;;;9.40;3.05;;;14.10;93.70;;;;;;5009093;28;20486;-88
2022/04/15 01:42:35;;;;;;;4.10;3.03;;;14.10;93.70;;;;;;4991776;28;20137;-88
2022/04/15 01:45:01;;;;;;;4.10;3.22;;;14.00;93.70;;;;;;4994297;28;20029;-88
2022/04/15 01:47:27;;;;;;;4.90;3.17;;;14.00;93.70;;;;;;5007688;28;20033;-88
2022/04/15 01:49:53;;;;;;;5.45;3.20;;;13.90;93.70;;;;;;4991980;28;20030;-89
2022/04/15 01:52:19;;;;;;;4.55;3.33;;;13.90;93.70;;;;;;4994744;28;20041;-88
2022/04/15 01:54:45;;;;;;;4.63;3.50;;;13.80;93.60;;;;;;4992618;28;20061;-88
2022/04/15 01:57:11;;;;;;;3.92;3.10;;;13.80;93.70;;;;;;4993871;28;20022;-88
2022/04/15 01:59:37;;;;;;;6.80;3.70;;;13.70;93.70;;;;;;4991860;28;20401;-88
2022/04/15 02:02:04;;;;;;;6.35;3.45;;;13.70;94.00;;;;;;5011909;28;20117;-88
2022/04/15 02:04:30;;;;;;;5.05;3.60;;;13.60;94.20;;;;;;4989323;28;20125;-87
2022/04/15 02:06:55;;;;;;;6.13;3.88;;;13.60;94.30;;;;;;4994462;28;20061;-89
2022/04/15 02:09:21;;;;;;;4.35;3.30;;;13.60;94.40;;;;;;4987807;28;20030;-87
2022/04/15 02:11:47;;;;;;;6.18;3.67;;;13.50;94.40;;;;;;5060498;22;20076;-89
2022/04/15 02:14:14;;;;;;;4.45;3.33;;;13.50;94.60;;;;;;4984140;28;20026;-89
2022/04/15 02:16:40;;;;;;;6.28;3.90;;;13.40;94.90;;;;;;4982304;28;20086;-89
2022/04/15 02:19:06;;;;;;;6.65;3.60;;;13.40;95.00;;;;;;4976292;28;20467;-88
2022/04/15 02:21:32;;;;;;;6.22;3.47;;;13.40;95.10;;;;;;4984693;28;20037;-89
2022/04/15 02:23:57;;;;;;;5.28;3.40;;;13.40;95.20;;;;;;4993490;28;20026;-88
2022/04/15 02:26:23;;;;;;;3.65;3.30;;;13.30;95.20;;;;;;4977860;28;20034;-88
2022/04/15 02:28:49;;;;;;;5.90;3.47;;;13.30;95.20;;;;;;4995136;28;20041;-89
2022/04/15 02:31:14;;;;;;;4.40;2.95;;;13.20;95.10;;;;;;5008432;28;20367;-89
2022/04/15 02:33:40;;;;;;;4.47;3.15;;;13.20;95.00;;;;;;4996301;28;20034;-87
2022/04/15 02:36:06;;;;;;;5.30;3.45;;;13.20;94.90;;;;;;5005394;28;20032;-88
2022/04/15 02:38:32;;;;;;;6.07;3.17;;;13.10;95.00;;;;;;5012052;28;20022;-89
2022/04/15 02:40:59;;;;;;;4.07;3.00;;;13.10;95.10;;;;;;4984847;28;20052;-88
2022/04/15 02:43:31;;;;;;;7.63;3.30;;;13.10;95.30;;;;;;4990983;28;20084;-89
2022/04/15 02:46:02;;;;;;;4.75;3.08;;;13.00;95.30;;;;;;4990260;28;20052;-89
2022/04/15 02:48:29;;;;;;;5.90;3.15;;;13.00;95.50;;;;;;4990436;28;20040;-89
2022/04/15 02:50:55;;;;;;;5.60;2.97;;;13.00;95.60;;;;;;4981557;28;20048;-88
2022/04/15 02:53:22;;;;;;;5.28;2.97;;;13.00;95.70;;;;;;4991843;28;20061;-88
2022/04/15 02:55:48;;;;;;;3.78;2.58;;;12.90;95.60;;;;;;4986194;28;20025;-87
2022/04/15 02:58:13;;;;;;;4.20;3.00;;;12.90;95.60;;;;;;4984764;28;20018;-88
2022/04/15 03:00:39;;;;;;;3.40;2.70;;;12.80;95.70;;;;;;5011119;28;20037;-88
2022/04/15 03:03:04;;;;;;;5.85;3.10;;;12.80;95.80;;;;;;4982215;28;20394;-88
2022/04/15 03:05:30;;;;;;;3.55;2.95;;;12.80;95.80;;;;;;5008801;28;20604;-84
2022/04/15 03:07:56;;;;;;;4.68;2.70;;;12.80;95.80;;;;;;4987903;28;20030;-85
2022/04/15 03:10:22;;;;;;;4.53;3.00;;;12.70;95.90;;;;;;4986128;28;20493;-88
2022/04/15 03:12:48;;;;;;;8.07;3.28;;;12.70;96.00;;;;;;4989196;28;20129;-88
2022/04/15 03:15:14;;;;;;;4.10;2.88;;;12.70;96.00;;;;;;5011253;28;20057;-88
2022/04/15 03:17:39;;;;;;;4.97;3.15;;;12.70;96.20;;;;;;4979913;28;20438;-88
2022/04/15 03:20:07;;;;;;;5.68;3.03;;;12.60;96.40;;;;;;4981721;28;20030;-87
2022/04/15 03:22:40;;;;;;;3.95;2.72;;;12.60;96.60;;;;;;5003557;28;20034;-88
2022/04/15 03:25:08;;;;;;;2.90;2.60;;;12.60;96.90;;;;;;5009702;28;20482;-88
2022/04/15 03:27:34;;;;;;;3.75;2.90;;;12.60;96.90;;;;;;4983281;28;20406;-88
2022/04/15 03:30:00;;;;;;;4.18;2.42;;;12.60;96.90;;;;;;4985490;28;20037;-88
2022/04/15 03:32:26;;;;;;;3.63;2.55;;;12.60;97.00;;;;;;4988529;28;20577;-88
2022/04/15 03:34:53;;;;;;;7.13;2.72;;;12.60;97.20;;;;;;4987635;28;20038;-89
2022/04/15 03:37:18;;;;;;;3.83;2.70;;;12.60;97.30;;;;;;4985617;28;20069;-88
2022/04/15 03:39:44;;;;;;;4.40;2.83;;;12.50;97.40;;;;;;4990431;28;20033;-89
2022/04/15 03:42:09;;;;;;;5.05;3.15;;;12.50;97.70;;;;;;5003922;28;20029;-88
2022/04/15 03:44:35;;;;;;;4.63;3.03;;;12.50;97.90;;;;;;4986946;28;20034;-89
2022/04/15 03:47:01;;;;;;;7.03;3.33;;;12.50;97.90;;;;;;4982252;28;20065;-89
2022/04/15 03:49:26;;;;;;;5.80;3.20;;;12.40;98.10;;;;;;4989367;28;20109;-86
2022/04/15 03:51:52;;;;;;;4.75;2.88;;;12.40;98.30;;;;;;4988671;28;20030;-86
2022/04/15 03:54:18;;;;;;;3.58;2.70;;;12.40;98.40;;;;;;4984657;28;20029;-85
2022/04/15 03:56:43;;;;;;;7.43;3.17;;;12.40;98.40;;;;;;5009342;28;20022;-85
2022/04/15 03:59:09;;;;;;;4.43;3.20;;;12.40;98.40;;;;;;4975423;28;20022;-86
2022/04/15 04:01:34;;;;;;;10.70;3.63;;;12.40;98.40;;;;;;5004919;28;20076;-86
2022/04/15 04:04:00;;;;;;;5.03;3.75;;;12.30;98.40;;;;;;4983029;28;20026;-85
2022/04/15 04:06:26;;;;;;;8.20;3.88;;;12.20;98.40;;;;;;4990587;28;20638;-86
2022/04/15 04:08:52;;;;;;;6.47;3.47;;;12.10;98.60;;;;;;5000644;28;20033;-88
2022/04/15 04:11:19;;;;;;;5.10;3.53;;;11.90;98.80;;;;;;4992600;28;20463;-88
2022/04/15 04:13:45;;;;;;;4.13;3.65;;;11.80;99.10;;;;;;4999625;28;20022;-86
2022/04/15 04:16:12;;;;;;;7.38;3.95;;;11.70;99.40;;;;;;5009188;28;20585;-88
2022/04/15 04:18:38;;;;;;;7.68;3.90;;;11.70;99.70;;;;;;4984130;28;20045;-86
2022/04/15 04:21:04;;;;;;;4.97;3.40;;;11.60;99.80;;;;;;4994315;28;20026;-88
2022/04/15 04:23:30;;;;;;;4.78;3.58;;;11.50;99.90;;;;;;5005160;28;20121;-87
2022/04/15 04:25:55;;;;;;;4.15;3.58;;;11.50;99.90;;;;;;4994566;28;20069;-87
2022/04/15 04:28:21;;;;;;;6.68;4.50;;;11.50;99.90;;;;;;5008058;28;21006;-86
2022/04/15 04:30:46;;;;;;;3.85;3.33;;;11.60;99.90;;;;;;4985798;28;20450;-85
2022/04/15 04:33:12;;;;;;;6.60;3.40;;;11.60;99.90;;;;;;4998613;28;20022;-85
2022/04/15 04:35:38;;;;;;;6.10;3.80;;;11.60;99.90;;;;;;4986551;28;20031;-86
2022/04/15 04:38:05;;;;;;;5.45;3.47;;;11.70;99.90;;;;;;4991725;28;20022;-86
2022/04/15 04:40:32;;;;;;;5.53;3.13;;;11.70;99.90;;;;;;5009997;28;20037;-86
2022/04/15 04:42:58;;;;;;;5.07;3.15;;;11.70;99.90;;;;;;5011017;28;20498;-87
2022/04/15 04:45:23;;;;;;;7.55;3.15;;;11.70;99.90;;;;;;4986657;28;20036;-86
2022/04/15 04:47:49;;;;;;;5.47;3.28;;;11.80;99.90;;;;;;4988011;28;20022;-86
2022/04/15 04:50:15;;;;;;;6.95;3.80;;;11.80;99.90;;;;;;4991861;28;20037;-87
2022/04/15 04:52:42;;;;;;;6.10;3.95;;;11.90;99.90;;;;;;4995651;28;20493;-86
2022/04/15 04:55:08;;;;;;;5.38;3.63;;;11.80;99.90;;;;;;5009514;28;20022;-86
2022/04/15 04:57:34;;;;;;;6.18;3.47;;;11.90;99.90;;;;;;5009693;28;20025;-86
2022/04/15 05:00:00;;;;;;;5.03;3.95;;;11.90;99.90;;;;;;5000903;28;20069;-85
2022/04/15 05:02:25;;;;;;;5.72;3.47;;;11.90;99.90;;;;;;5006610;28;20033;-87
2022/04/15 05:04:51;;;;;;;5.95;3.85;;;11.90;99.90;;;;;;4985130;28;20044;-86
2022/04/15 05:07:16;;;;;;;4.35;3.58;;;11.90;99.90;;;;;;5014530;28;20030;-86
2022/04/15 05:09:43;;;;;;;7.53;4.07;;;11.90;99.90;;;;;;4987636;28;20060;-86
2022/04/15 05:12:10;;;;;;;5.90;3.92;;;11.90;99.90;;;;;;5011950;28;20033;-87
2022/04/15 05:14:36;;;;;;;8.02;3.85;;;12.00;99.90;;;;;;4983014;28;20037;-86
2022/04/15 05:17:02;;;;;;;4.90;3.55;;;12.00;99.90;;;;;;4990412;28;20018;-86
2022/04/15 05:19:27;;;;;;;4.22;3.70;;;12.00;99.90;;;;;;4991857;28;20213;-87
2022/04/15 05:21:53;;;;;;;5.38;3.63;;;12.00;99.90;;;;;;4993846;28;20049;-87
2022/04/15 05:24:18;;;;;;;6.65;3.70;;;12.00;99.90;;;;;;4992529;28;20022;-87
2022/04/15 05:26:44;;;;;;;7.32;3.95;;;12.00;99.90;;;;;;4989695;28;20058;-86
2022/04/15 05:29:10;;;;;;;4.38;3.63;;;12.00;99.90;;;;;;4989348;28;20030;-85
2022/04/15 05:31:35;;;;;;;8.82;4.10;;;12.00;99.90;;;;;;5006299;28;20045;-85
2022/04/15 05:34:02;;;;;;;4.90;3.22;;;11.90;99.90;;;;;;5024586;28;20102;-86
2022/04/15 05:36:28;;;;;;;6.22;3.47;;;12.00;99.90;;;;;;4987061;28;20044;-86
2022/04/15 05:38:53;;;;;;;11.00;4.95;;;12.00;99.90;;;;;;5009838;28;20017;-86
2022/04/15 05:41:19;;;;;;;6.13;4.43;;;12.10;99.90;;;;;;4982773;28;20053;-86
2022/04/15 05:43:46;;;;;;;5.60;4.28;;;12.10;99.90;;;;;;5005109;28;20030;-86
2022/04/15 05:46:12;;;;;;;5.65;4.20;;;12.10;99.90;;;;;;4999186;28;20022;-86
2022/04/15 05:48:37;;;;;;;5.65;4.55;;;12.10;99.90;;;;;;4991045;28;20038;-86
2022/04/15 05:51:03;;;;;;;6.80;4.57;;;12.00;99.90;;;;;;4990484;28;20026;-85
2022/04/15 05:53:29;;;;;;;8.70;4.65;;;12.00;99.90;;;;;;5004854;28;20108;-86
2022/04/15 05:55:55;;;;;;;8.40;5.72;;;12.00;99.90;;;;;;4992415;28;20140;-85
2022/04/15 05:58:21;;;;;;;6.38;4.70;;;12.00;99.90;;;;;;4995022;28;20065;-86
2022/04/15 06:00:46;;;;;;;6.88;5.15;;;12.00;99.90;;;;;;5001710;28;20197;-85
2022/04/15 06:03:12;;;;;;;6.63;5.00;;;12.10;99.90;;;;;;4999656;28;20034;-86
2022/04/15 06:05:38;;;;;;;6.15;4.60;;;12.10;99.90;;;;;;4983872;28;20045;-86
2022/04/15 06:08:04;;;;;;;6.95;4.82;;;12.30;99.90;;;;;;4986173;28;20025;-85
2022/04/15 06:10:30;;;;;;;6.28;4.50;;;12.30;99.90;;;;;;4987757;28;20498;-84
2022/04/15 06:13:02;;;;;;;9.02;4.55;;;12.40;99.90;;;;;;4990961;28;20030;-85
2022/04/15 06:15:30;;;;;;;8.00;5.03;;;12.50;99.90;;;;;;4986971;28;20030;-85
2022/04/15 06:17:56;;;;;;;5.97;4.72;;;12.60;99.90;;;;;;4986540;28;20050;-85
2022/04/15 06:20:22;;;;;;;6.07;4.85;;;12.60;99.90;;;;;;4984664;28;20030;-85
2022/04/15 06:22:47;;;;;;;7.85;5.15;;;12.60;99.90;;;;;;4988828;28;20065;-86
2022/04/15 06:25:13;;;;;;;8.52;5.43;;;12.60;99.90;;;;;;4988517;28;20026;-86
2022/04/15 06:27:39;;;;;;;6.32;5.05;;;12.80;99.90;;;;;;4994260;28;20030;-86
2022/04/15 06:30:07;;;;;;;10.55;5.55;;;12.90;99.90;;;;;;4989670;28;20030;-85
2022/04/15 06:32:33;;;;;;;10.23;5.85;;;13.00;99.90;;;;;;4990220;28;20037;-86
2022/04/15 06:34:59;;;;;;;12.48;6.07;;;13.10;99.90;;;;;;4991051;28;20021;-86
2022/04/15 06:37:25;;;;;;;10.10;5.82;;;13.30;99.90;;;;;;4991003;28;20025;-86
2022/04/15 06:39:51;;;;;;;11.27;5.63;;;13.40;99.90;;;;;;5006545;28;20025;-86
2022/04/15 06:42:31;;;;;;;13.20;6.07;;;13.50;99.90;;;;;;4991768;28;20034;-86
2022/04/15 06:44:59;;;;;;;8.05;5.82;;;13.60;99.90;;;;;;5003767;28;20033;-86
2022/04/15 06:47:25;;;;;;;9.55;6.43;;;13.60;99.90;;;;;;5012450;28;20022;-86
2022/04/15 06:49:50;;;;;;;9.30;5.90;;;13.70;99.90;;;;;;4985787;28;20503;-86
2022/04/15 06:52:17;;;;;;;10.07;6.15;;;13.70;99.90;;;;;;5004347;28;20030;-85
2022/04/15 06:54:43;;;;;;;11.63;6.47;;;13.70;99.90;;;;;;4978557;28;20027;-86
2022/04/15 06:57:12;;;;;;;9.55;6.45;;;13.80;99.90;;;;;;4991269;28;20041;-86
2022/04/15 06:59:38;;;;;;;11.43;7.20;;;13.90;99.90;;;;;;4987577;28;20033;-85
2022/04/15 07:02:04;;;;;;;10.52;6.78;;;14.00;99.90;;;;;;5009143;28;20026;-86
2022/04/15 07:04:31;;;;;;;10.07;6.50;;;14.20;99.90;;;;;;4992580;28;20021;-86
2022/04/15 07:06:58;;;;;;;9.07;6.32;;;14.40;99.90;;;;;;4990315;28;20164;-86
2022/04/15 07:09:24;;;;;;;7.38;6.55;;;14.70;99.90;;;;;;4991617;28;20025;-86
2022/04/15 07:11:50;;;;;;;6.97;6.25;;;15.00;99.90;;;;;;5011248;28;20113;-86
2022/04/15 07:14:16;;;;;;;7.70;5.78;;;15.20;99.90;;;;;;5007130;28;20109;-86
2022/04/15 07:16:42;;;;;;;8.90;6.22;;;15.40;99.90;;;;;;4992588;28;20030;-86
2022/04/15 07:19:08;;;;;;;7.75;5.30;;;15.70;99.90;;;;;;4991184;28;20022;-85
2022/04/15 07:21:34;;;;;;;7.70;5.40;;;16.10;99.90;;;;;;4991454;28;20449;-86
2022/04/15 07:24:00;;;;;;;8.02;5.72;;;16.50;99.90;;;;;;4985211;28;20030;-86
2022/04/15 07:26:26;;;;;;;6.93;5.65;;;16.60;99.80;;;;;;5010926;28;20038;-86
2022/04/15 07:28:51;;;;;;;8.63;5.53;;;16.80;99.50;;;;;;4983551;28;20030;-86
2022/04/15 07:31:17;;;;;;;8.73;6.25;;;16.90;99.10;;;;;;5007604;28;20273;-86
2022/04/15 07:33:43;;;;;;;8.40;6.50;;;17.00;98.60;;;;;;4981771;28;20030;-85
2022/04/15 07:36:31;;;;;;;10.40;6.20;;;17.00;98.00;;;;;;4988199;28;20021;-87
2022/04/15 07:38:54;;;;;;;8.38;5.88;;;17.10;97.90;;;;;;5001965;28;20022;-87
2022/04/15 07:41:20;;;;;;;8.30;6.32;;;17.10;97.70;;;;;;4989257;28;20022;-87
2022/04/15 07:43:47;;;;;;;11.57;6.50;;;17.20;97.50;;;;;;4991547;28;20390;-86
2022/04/15 07:46:13;;;;;;;15.00;11.43;;;17.30;97.20;;;;;;4984825;28;20024;-85
2022/04/15 07:48:39;;;;;;;12.35;9.40;;;17.30;97.00;;;;;;4985865;28;20458;-87
2022/04/15 07:51:04;;;;;;;7.78;6.25;;;17.40;96.80;;;;;;5010043;28;20114;-86
2022/04/15 07:53:30;;;;;;;7.03;5.85;;;17.70;96.50;;;;;;4989083;28;20026;-86
2022/04/15 07:56:23;;;;;;;10.55;6.20;;;18.00;96.30;;;;;;5026807;28;20041;-92
2022/04/15 08:14:14;;;;;;;10.23;5.75;;;20.60;92.70;;;;;;4995007;28;20053;-89
2022/04/15 08:16:39;;;;;;;9.23;6.18;;;20.90;92.30;;;;;;4979256;28;20014;-88
2022/04/15 08:19:05;;;;;;;14.30;6.30;;;21.20;91.60;;;;;;4990512;28;20034;-86
2022/04/15 08:21:31;;;;;;;9.73;6.60;;;21.40;90.90;;;;;;4990231;28;20051;-86
2022/04/15 08:23:57;;;;;;;8.35;6.75;;;21.60;90.20;;;;;;4976944;28;20038;-85
2022/04/15 08:26:23;;;;;;;6.57;5.88;;;21.90;88.30;;;;;;4984530;28;20108;-88
2022/04/15 08:28:49;;;;;;;9.05;5.85;;;22.20;86.50;;;;;;4976637;28;20407;-85
2022/04/15 08:31:14;;;;;;;8.23;5.80;;;22.40;85.70;;;;;;4981055;28;20033;-85
2022/04/15 08:33:40;;;;;;;6.50;5.80;;;22.80;84.40;;;;;;4994823;28;20438;-85
2022/04/15 08:36:06;;;;;;;9.43;6.20;;;23.20;82.20;;;;;;4995501;28;20386;-86
2022/04/15 08:38:32;;;;;;;9.68;6.32;;;23.50;80.40;;;;;;4977945;28;20037;-87
2022/04/15 08:40:58;;;;;;;8.80;6.55;;;23.70;78.50;;;;;;4976660;28;20400;-86
2022/04/15 08:43:25;;;;;;;7.10;6.05;;;23.90;76.50;;;;;;4988231;28;20042;-86
2022/04/15 08:45:51;;;;;;;8.55;6.70;;;24.00;75.70;;;;;;4975712;28;20031;-86
2022/04/15 08:48:17;;;;;;;7.38;5.97;;;24.20;74.30;;;;;;4976629;28;20033;-85
2022/04/15 08:50:43;;;;;;;10.60;7.07;;;24.50;73.20;;;;;;4972751;28;20133;-86
2022/04/15 08:53:09;;;;;;;8.70;6.93;;;24.80;71.70;;;;;;4976465;28;20085;-87
2022/04/15 08:55:35;;;;;;;8.00;6.68;;;25.00;70.50;;;;;;4975944;28;20034;-86
2022/04/15 08:58:01;;;;;;;9.55;7.15;;;25.20;69.60;;;;;;4981277;28;20042;-87
2022/04/15 09:00:27;;;;;;;8.63;7.38;;;25.40;68.80;;;;;;4972202;28;20033;-88
2022/04/15 09:02:54;;;;;;;9.00;7.40;;;25.60;67.70;;;;;;4978377;28;20030;-90
2022/04/15 09:05:22;;;;;;;11.15;7.90;;;25.80;66.40;;;;;;4974105;28;20045;-90
2022/04/15 09:07:48;;;;;;;12.05;8.50;;;26.10;65.10;;;;;;4987600;28;20605;-89
2022/04/15 09:10:18;;;;;;;10.50;8.02;;;26.30;63.50;;;;;;4980923;28;20114;-89
2022/04/15 09:12:46;;;;;;;11.35;8.27;;;26.50;62.10;;;;;;4979742;28;20034;-89
2022/04/15 09:15:13;;;;;;;10.40;8.05;;;26.70;60.70;;;;;;4979939;28;20030;-91
2022/04/15 09:17:40;;;;;;;11.50;8.43;;;27.00;59.30;;;;;;4999339;28;20498;-91
2022/04/15 09:20:08;;;;;;;10.85;7.68;;;27.40;58.40;;;;;;4980363;28;20090;-90
2022/04/15 09:22:34;;;;;;;11.90;8.40;;;27.80;57.00;;;;;;5009936;28;20048;-93
2022/04/15 09:25:00;;;;;;;11.85;7.93;;;28.40;55.90;;;;;;4989090;28;20022;-93
2022/04/15 09:27:26;;;;;;;10.75;8.18;;;28.70;54.40;;;;;;4994074;28;20026;-91
2022/04/15 09:29:56;;;;;;;12.25;9.15;;;29.20;53.40;;;;;;4985576;28;20077;-89
2022/04/15 09:32:24;;;;;;;10.75;8.70;;;29.70;52.10;;;;;;4970633;28;20087;-90
2022/04/15 09:34:58;;;;;;;10.25;8.70;;;30.00;51.30;;;;;;4975928;28;20026;-89
2022/04/15 09:37:31;;;;;;;11.65;8.40;;;30.40;50.60;;;;;;4981974;28;20027;-91
2022/04/15 09:40:14;;;;;;;14.43;10.48;;;30.60;49.80;;;;;;4994778;28;20022;-88
2022/04/15 09:43:06;;;;;;;11.05;9.18;;;30.90;48.90;;;;;;4980705;28;20034;-89
2022/04/15 09:45:37;;;;;;;14.70;11.32;;;31.40;48.30;;;;;;4978090;28;20041;-89
2022/04/15 09:48:04;;;;;;;14.02;11.20;;;31.70;47.00;;;;;;4989892;28;20038;-87
2022/04/15 09:50:34;;;;;;;15.20;11.38;;;31.70;46.50;;;;;;4978451;28;20035;-87
2022/04/15 09:53:09;;;;;;;16.17;10.35;;;31.70;45.70;;;;;;4972674;28;20028;-86
2022/04/15 09:55:36;;;;;;;13.15;9.13;;;31.90;45.80;;;;;;4977484;28;20014;-86
2022/04/15 09:58:15;;;;;;;10.70;9.50;;;32.00;45.80;;;;;;4980319;28;20042;-87
2022/04/15 10:00:49;;;;;;;12.75;9.20;;;32.10;45.30;;;;;;4982052;28;20038;-86
2022/04/15 10:03:22;;;;;;;12.20;10.40;;;31.80;45.50;;;;;;4987000;28;20023;-86
2022/04/15 10:05:56;;;;;;;14.88;9.75;;;31.20;45.50;;;;;;5002113;28;20033;-86
2022/04/15 10:08:23;;;;;;;12.30;9.20;;;30.10;46.50;;;;;;4994400;28;20030;-85
2022/04/15 10:10:50;;;;;;;14.32;9.40;;;30.30;46.10;;;;;;4973826;28;20069;-86
2022/04/15 10:13:16;;;;;;;12.63;8.65;;;30.80;45.20;;;;;;4993372;28;20114;-85
2022/04/15 10:15:43;;;;;;;11.02;8.85;;;31.00;44.60;;;;;;4973907;28;20060;-86
2022/04/15 10:18:09;;;;;;;9.77;7.57;;;30.30;45.10;;;;;;4986707;28;20506;-86
2022/04/15 10:20:38;;;;;;;10.50;7.60;;;30.70;44.60;;;;;;4975970;28;20031;-85
2022/04/15 10:23:07;;;;;;;10.10;7.63;;;31.00;44.20;;;;;;4976887;28;20499;-86
2022/04/15 10:25:34;;;;;;;12.27;8.15;;;31.40;44.00;;;;;;4976588;28;20041;-88
2022/04/15 10:28:11;;;;;;;10.73;8.57;;;30.60;44.30;;;;;;4976860;28;20022;-86
2022/04/15 10:30:38;;;;;;;12.85;8.57;;;29.70;44.40;;;;;;4992331;28;20072;-89
2022/04/15 10:33:04;;;;;;;10.18;7.65;;;28.70;45.40;;;;;;4992823;28;20034;-89
2022/04/15 10:35:32;;;;;;;12.95;7.15;;;28.60;45.30;;;;;;5013892;28;20054;-87
2022/04/15 10:38:02;;;;;;;10.18;7.28;;;29.10;45.10;;;;;;4984999;28;20054;-86
2022/04/15 10:40:32;;;;;;;9.27;7.15;;;29.60;44.50;;;;;;4976393;28;20030;-87
2022/04/15 10:43:16;;;;;;;9.60;7.95;;;30.10;44.10;;;;;;4969502;28;20030;-87
2022/04/15 10:45:41;;;;;;;8.48;7.18;;;30.10;43.80;;;;;;4974278;28;20034;-87
2022/04/15 10:48:07;;;;;;;10.95;7.20;;;30.00;44.20;;;;;;4988456;28;20081;-90
2022/04/15 10:50:34;;;;;;;8.23;5.45;;;29.80;44.30;;;;;;4993726;28;20164;-86
2022/04/15 10:53:18;;;;;;;8.23;5.63;;;29.50;44.30;;;;;;4991130;28;20030;-87
2022/04/15 10:55:48;;;;;;;9.65;6.55;;;29.30;44.50;;;;;;4990355;28;20022;-87
2022/04/15 10:58:19;;;;;;;9.00;6.55;;;29.20;44.70;;;;;;4974402;28;20019;-87
2022/04/15 11:01:14;;;;;;;8.68;6.32;;;28.90;44.80;;;;;;4972618;28;20041;-87
2022/04/15 11:03:42;;;;;;;9.75;5.40;;;28.50;45.20;;;;;;4970463;28;20049;-87
2022/04/15 11:06:09;;;;;;;7.70;6.05;;;28.10;45.70;;;;;;4984617;28;20053;-86
2022/04/15 11:08:46;;;;;;;9.00;6.20;;;27.90;45.80;;;;;;4967600;28;20430;-87
2022/04/15 11:11:12;;;;;;;6.53;5.07;;;27.80;45.70;;;;;;4973033;28;20029;-87
2022/04/15 11:13:40;;;;;;;6.50;5.13;;;27.30;46.50;;;;;;4986417;28;20038;-87
2022/04/15 11:16:13;;;;;;;8.90;5.30;;;27.00;45.90;;;;;;4970764;28;20486;-87
2022/04/15 11:18:55;;;;;;;7.10;5.18;;;26.90;45.80;;;;;;4971565;28;20066;-87
2022/04/15 11:21:22;;;;;;;29.42;21.65;;;26.60;46.10;;;;;;4971442;28;20031;-87
2022/04/15 11:24:00;;;;;;;6.97;5.60;;;26.30;46.50;;;;;;4970413;28;20030;-87
2022/04/15 11:26:28;;;;;;;7.82;5.20;;;26.00;46.40;;;;;;4962743;28;20030;-85
2022/04/15 11:28:55;;;;;;;5.90;5.13;;;25.80;47.00;;;;;;4992456;28;20029;-86
2022/04/15 11:31:24;;;;;;;7.82;4.32;;;25.70;47.30;;;;;;4974067;28;20034;-87
2022/04/15 11:33:51;;;;;;;7.35;4.93;;;25.90;47.40;;;;;;4972918;28;20037;-85
2022/04/15 11:36:20;;;;;;;8.90;5.85;;;25.90;47.50;;;;;;4988059;28;20186;-86
2022/04/15 11:38:46;;;;;;;8.40;5.60;;;26.00;47.40;;;;;;4974917;28;20399;-86
2022/04/15 11:41:16;;;;;;;7.07;5.65;;;25.60;46.80;;;;;;4991199;28;20027;-86
2022/04/15 11:43:53;;;;;;;8.02;4.82;;;25.20;47.00;;;;;;4973479;28;20030;-86
2022/04/15 11:46:18;;;;;;;6.70;5.03;;;25.00;47.80;;;;;;4973639;28;20161;-86
2022/04/15 11:48:45;;;;;;;7.68;4.82;;;25.00;48.30;;;;;;4976729;28;20533;-87
2022/04/15 11:51:10;;;;;;;6.80;5.10;;;25.00;48.40;;;;;;4973895;28;20652;-86
2022/04/15 11:53:36;;;;;;;5.32;4.20;;;25.10;48.20;;;;;;4972669;28;20026;-87
2022/04/15 11:56:02;;;;;;;6.70;4.93;;;25.10;48.50;;;;;;4973401;28;20018;-86
2022/04/15 11:58:35;;;;;;;6.82;5.15;;;25.10;48.40;;;;;;4991552;28;20068;-87
2022/04/15 12:01:02;;;;;;;8.70;4.05;;;25.20;48.20;;;;;;4971788;28;20081;-86
2022/04/15 12:03:28;;;;;;;5.72;4.38;;;25.20;48.20;;;;;;4994593;28;20030;-87
2022/04/15 12:05:57;;;;;;;5.95;3.60;;;25.10;48.00;;;;;;4973763;28;20164;-86
2022/04/15 12:08:23;;;;;;;7.68;4.15;;;25.20;47.90;;;;;;4974462;28;20035;-87
2022/04/15 12:10:49;;;;;;;8.38;3.63;;;25.20;47.70;;;;;;4971538;28;20053;-86
2022/04/15 12:13:16;;;;;;;4.13;3.20;;;25.20;47.60;;;;;;4973790;28;20026;-86
2022/04/15 12:15:43;;;;;;;6.03;3.55;;;25.30;47.10;;;;;;4991040;28;20025;-86
2022/04/15 12:18:10;;;;;;;4.20;3.22;;;25.20;47.20;;;;;;4974224;28;20102;-86
2022/04/15 12:20:38;;;;;;;3.25;2.97;;;25.10;47.20;;;;;;4970061;28;20027;-87
2022/04/15 12:23:05;;;;;;;8.63;3.78;;;25.20;47.50;;;;;;4981011;28;20034;-87
2022/04/15 12:26:05;;;;;;;7.35;3.40;;;25.30;47.70;;;;;;4986022;28;20031;-86
2022/04/15 12:31:01;;;;;;;4.55;3.63;;;25.50;47.30;;;;;;4990513;28;20029;-86
2022/04/15 12:33:26;;;;;;;6.57;3.83;;;25.60;47.70;;;;;;4974172;28;20026;-87
2022/04/15 12:36:03;;;;;;;5.45;3.40;;;25.60;47.60;;;;;;4970646;28;20054;-87
2022/04/15 12:38:50;;;;;;;4.90;3.15;;;25.50;47.20;;;;;;4976968;28;20461;-86
2022/04/15 12:41:15;;;;;;;3.28;2.92;;;25.40;47.50;;;;;;4977501;28;20027;-86
2022/04/15 12:43:41;;;;;;;3.08;2.53;;;25.20;47.50;;;;;;4976272;28;20479;-86
2022/04/15 12:46:16;;;;;;;5.13;3.50;;;25.20;47.70;;;;;;4991547;28;20030;-87
2022/04/15 12:48:50;;;;;;;6.35;3.65;;;25.20;47.40;;;;;;4993691;28;20077;-86
2022/04/15 12:51:17;;;;;;;4.85;3.85;;;25.10;47.70;;;;;;4974230;28;20033;-86
2022/04/15 12:53:44;;;;;;;5.05;3.10;;;25.00;48.20;;;;;;4994163;28;20045;-87
2022/04/15 12:56:13;;;;;;;4.85;3.38;;;25.00;47.80;;;;;;4970946;28;20018;-88
2022/04/15 12:58:52;;;;;;;5.47;3.05;;;25.10;47.70;;;;;;4972587;28;20030;-90
2022/04/15 13:01:18;;;;;;;3.65;2.80;;;25.20;47.90;;;;;;4977563;28;20023;-88
2022/04/15 13:03:54;;;;;;;3.60;2.80;;;25.20;48.20;;;;;;4978860;28;20041;-87
2022/04/15 13:06:20;;;;;;;6.20;2.67;;;25.20;47.80;;;;;;4976283;28;20153;-87